sensor_id;sensor_type;location;lat;lon;timestamp;temperature;humidity
30572;DHT22;17348;50.948;10.696;2022-11-18T00:01:57;7.50;99.90
30572;DHT22;17348;50.948;10.696;2022-11-18T00:05:00;7.60;99.90
30572;DHT22;17348;50.948;10.696;2022-11-18T00:08:04;7.60;99.90
30572;DHT22;17348;50.948;10.696;2022-11-18T00:11:07;7.60;99.90
30572;DHT22;17348;50.948;10.696;2022-11-18T00:14:12;7.50;99.90
30572;DHT22;17348;50.948;10.696;2022-11-18T00:17:19;7.40;99.90
30572;DHT22;17348;50.948;10.696;2022-11-18T00:20:22;7.50;99.90
30572;DHT22;17348;50.948;10.696;2022-11-18T00:23:25;7.40;99.90
30572;DHT22;17348;50.948;10.696;2022-11-18T00:26:28;7.50;99.90
30572;DHT22;17348;50.948;10.696;2022-11-18T00:29:30;7.50;99.90
30572;DHT22;17348;50.948;10.696;2022-11-18T00:32:32;7.60;99.90
30572;DHT22;17348;50.948;10.696;2022-11-18T00:35:35;7.60;99.90
30572;DHT22;17348;50.948;10.696;2022-11-18T00:38:39;7.60;99.90
30572;DHT22;17348;50.948;10.696;2022-11-18T00:41:41;7.70;99.90
30572;DHT22;17348;50.948;10.696;2022-11-18T00:45:01;7.70;99.90
30572;DHT22;17348;50.948;10.696;2022-11-18T00:48:04;7.70;99.90
30572;DHT22;17348;50.948;10.696;2022-11-18T00:51:09;7.70;99.90
30572;DHT22;17348;50.948;10.696;2022-11-18T00:54:13;7.70;99.90
30572;DHT22;17348;50.948;10.696;2022-11-18T00:57:15;7.70;99.90
30572;DHT22;17348;50.948;10.696;2022-11-18T01:00:17;7.60;99.90
30572;DHT22;17348;50.948;10.696;2022-11-18T01:03:20;7.70;99.90
30572;DHT22;17348;50.948;10.696;2022-11-18T01:06:22;7.70;99.90
30572;DHT22;17348;50.948;10.696;2022-11-18T01:09:26;7.80;99.90
30572;DHT22;17348;50.948;10.696;2022-11-18T01:12:29;7.70;99.90
30572;DHT22;17348;50.948;10.696;2022-11-18T01:15:50;7.70;99.90
30572;DHT22;17348;50.948;10.696;2022-11-18T01:18:53;7.60;99.90
30572;DHT22;17348;50.948;10.696;2022-11-18T01:21:55;7.60;99.90
30572;DHT22;17348;50.948;10.696;2022-11-18T01:25:04;7.50;99.90
30572;DHT22;17348;50.948;10.696;2022-11-18T01:28:07;7.50;99.90
30572;DHT22;17348;50.948;10.696;2022-11-18T01:31:11;7.40;99.90
30572;DHT22;17348;50.948;10.696;2022-11-18T01:34:13;7.40;99.90
30572;DHT22;17348;50.948;10.696;2022-11-18T01:37:16;7.40;99.90
30572;DHT22;17348;50.948;10.696;2022-11-18T01:40:20;7.50;99.90
30572;DHT22;17348;50.948;10.696;2022-11-18T01:43:23;7.50;99.90
30572;DHT22;17348;50.948;10.696;2022-11-18T01:46:26;7.50;99.90
30572;DHT22;17348;50.948;10.696;2022-11-18T01:49:29;7.50;99.90
30572;DHT22;17348;50.948;10.696;2022-11-18T01:52:32;7.50;99.90
30572;DHT22;17348;50.948;10.696;2022-11-18T01:55:40;7.50;99.90
30572;DHT22;17348;50.948;10.696;2022-11-18T01:58:49;7.50;99.90
30572;DHT22;17348;50.948;10.696;2022-11-18T02:01:54;7.50;99.90
30572;DHT22;17348;50.948;10.696;2022-11-18T02:04:57;7.50;99.90
30572;DHT22;17348;50.948;10.696;2022-11-18T02:08:00;7.50;99.90
30572;DHT22;17348;50.948;10.696;2022-11-18T02:11:09;7.50;99.90
30572;DHT22;17348;50.948;10.696;2022-11-18T02:14:34;7.50;99.90
30572;DHT22;17348;50.948;10.696;2022-11-18T02:17:46;7.50;99.90
30572;DHT22;17348;50.948;10.696;2022-11-18T02:20:54;7.50;99.90
30572;DHT22;17348;50.948;10.696;2022-11-18T02:24:14;7.60;99.90
30572;DHT22;17348;50.948;10.696;2022-11-18T02:31:10;7.50;99.90
30572;DHT22;17348;50.948;10.696;2022-11-18T02:34:24;7.50;99.90
30572;DHT22;17348;50.948;10.696;2022-11-18T02:37:33;7.40;99.90
30572;DHT22;17348;50.948;10.696;2022-11-18T02:40:40;7.40;99.90
30572;DHT22;17348;50.948;10.696;2022-11-18T02:43:44;7.30;99.90
30572;DHT22;17348;50.948;10.696;2022-11-18T02:46:54;7.20;99.90
30572;DHT22;17348;50.948;10.696;2022-11-18T02:50:00;7.20;99.90
30572;DHT22;17348;50.948;10.696;2022-11-18T02:53:06;7.20;99.90
30572;DHT22;17348;50.948;10.696;2022-11-18T02:56:09;7.20;99.90
30572;DHT22;17348;50.948;10.696;2022-11-18T02:59:16;7.20;99.90
30572;DHT22;17348;50.948;10.696;2022-11-18T03:02:20;7.20;99.90
30572;DHT22;17348;50.948;10.696;2022-11-18T03:05:29;7.20;99.90
30572;DHT22;17348;50.948;10.696;2022-11-18T03:08:37;7.30;99.90
30572;DHT22;17348;50.948;10.696;2022-11-18T03:11:46;7.30;99.90
30572;DHT22;17348;50.948;10.696;2022-11-18T03:14:56;7.30;99.90
30572;DHT22;17348;50.948;10.696;2022-11-18T03:18:09;7.30;99.90
30572;DHT22;17348;50.948;10.696;2022-11-18T03:21:18;7.30;99.90
30572;DHT22;17348;50.948;10.696;2022-11-18T03:24:25;7.30;99.90
30572;DHT22;17348;50.948;10.696;2022-11-18T03:27:33;7.30;99.90
30572;DHT22;17348;50.948;10.696;2022-11-18T03:30:40;7.30;99.90
30572;DHT22;17348;50.948;10.696;2022-11-18T03:33:49;7.30;99.90
30572;DHT22;17348;50.948;10.696;2022-11-18T03:36:56;7.30;99.90
30572;DHT22;17348;50.948;10.696;2022-11-18T03:40:11;7.30;99.90
30572;DHT22;17348;50.948;10.696;2022-11-18T03:43:17;7.30;99.90
30572;DHT22;17348;50.948;10.696;2022-11-18T03:46:24;7.30;99.90
30572;DHT22;17348;50.948;10.696;2022-11-18T03:49:33;7.30;99.90
30572;DHT22;17348;50.948;10.696;2022-11-18T03:52:38;7.20;99.90
30572;DHT22;17348;50.948;10.696;2022-11-18T03:55:43;7.30;99.90
30572;DHT22;17348;50.948;10.696;2022-11-18T03:58:52;7.30;99.90
30572;DHT22;17348;50.948;10.696;2022-11-18T04:01:58;7.20;99.90
30572;DHT22;17348;50.948;10.696;2022-11-18T04:05:07;7.20;99.90
30572;DHT22;17348;50.948;10.696;2022-11-18T04:08:13;7.20;99.90
30572;DHT22;17348;50.948;10.696;2022-11-18T04:11:22;7.10;99.90
30572;DHT22;17348;50.948;10.696;2022-11-18T04:14:42;7.10;99.90
30572;DHT22;17348;50.948;10.696;2022-11-18T04:17:45;7.10;99.90
30572;DHT22;17348;50.948;10.696;2022-11-18T04:20:48;7.10;99.90
30572;DHT22;17348;50.948;10.696;2022-11-18T04:23:51;7.20;99.90
30572;DHT22;17348;50.948;10.696;2022-11-18T04:26:53;7.20;99.90
30572;DHT22;17348;50.948;10.696;2022-11-18T04:29:55;7.20;99.90
30572;DHT22;17348;50.948;10.696;2022-11-18T04:32:58;7.30;99.90
30572;DHT22;17348;50.948;10.696;2022-11-18T04:36:01;7.30;99.90
30572;DHT22;17348;50.948;10.696;2022-11-18T04:39:04;7.30;99.90
30572;DHT22;17348;50.948;10.696;2022-11-18T04:42:07;7.30;99.90
30572;DHT22;17348;50.948;10.696;2022-11-18T04:45:10;7.30;99.90
30572;DHT22;17348;50.948;10.696;2022-11-18T04:48:13;7.40;99.90
30572;DHT22;17348;50.948;10.696;2022-11-18T04:51:17;7.40;99.90
30572;DHT22;17348;50.948;10.696;2022-11-18T04:54:20;7.40;99.90
30572;DHT22;17348;50.948;10.696;2022-11-18T04:57:22;7.40;99.90
30572;DHT22;17348;50.948;10.696;2022-11-18T05:00:24;7.40;99.90
30572;DHT22;17348;50.948;10.696;2022-11-18T05:03:27;7.40;99.90
30572;DHT22;17348;50.948;10.696;2022-11-18T05:06:30;7.30;99.90
30572;DHT22;17348;50.948;10.696;2022-11-18T05:09:33;7.30;99.90
30572;DHT22;17348;50.948;10.696;2022-11-18T05:12:36;7.30;99.90
30572;DHT22;17348;50.948;10.696;2022-11-18T05:15:49;7.30;99.90
30572;DHT22;17348;50.948;10.696;2022-11-18T05:18:52;7.20;99.90
30572;DHT22;17348;50.948;10.696;2022-11-18T05:21:55;7.20;99.90
30572;DHT22;17348;50.948;10.696;2022-11-18T05:24:58;7.20;99.90
30572;DHT22;17348;50.948;10.696;2022-11-18T05:28:00;7.20;99.90
30572;DHT22;17348;50.948;10.696;2022-11-18T05:31:06;7.20;99.90
30572;DHT22;17348;50.948;10.696;2022-11-18T05:34:08;7.10;99.90
30572;DHT22;17348;50.948;10.696;2022-11-18T05:37:12;7.10;99.90
30572;DHT22;17348;50.948;10.696;2022-11-18T05:40:15;7.10;99.90
30572;DHT22;17348;50.948;10.696;2022-11-18T05:43:17;7.00;99.90
30572;DHT22;17348;50.948;10.696;2022-11-18T05:46:18;7.00;99.90
30572;DHT22;17348;50.948;10.696;2022-11-18T05:49:21;6.90;99.90
30572;DHT22;17348;50.948;10.696;2022-11-18T05:52:25;6.90;99.90
30572;DHT22;17348;50.948;10.696;2022-11-18T05:55:30;6.90;99.90
30572;DHT22;17348;50.948;10.696;2022-11-18T05:58:34;6.90;99.90
30572;DHT22;17348;50.948;10.696;2022-11-18T06:01:41;6.80;99.90
30572;DHT22;17348;50.948;10.696;2022-11-18T06:04:48;6.80;99.90
30572;DHT22;17348;50.948;10.696;2022-11-18T06:07:54;6.80;99.90
30572;DHT22;17348;50.948;10.696;2022-11-18T06:10:58;6.80;99.90
30572;DHT22;17348;50.948;10.696;2022-11-18T06:14:04;6.70;99.90
30572;DHT22;17348;50.948;10.696;2022-11-18T06:17:12;6.70;99.90
30572;DHT22;17348;50.948;10.696;2022-11-18T06:20:18;6.70;99.90
30572;DHT22;17348;50.948;10.696;2022-11-18T06:23:22;6.70;99.90
30572;DHT22;17348;50.948;10.696;2022-11-18T06:26:25;6.70;99.90
30572;DHT22;17348;50.948;10.696;2022-11-18T06:29:29;6.70;99.90
30572;DHT22;17348;50.948;10.696;2022-11-18T06:32:32;6.70;99.90
30572;DHT22;17348;50.948;10.696;2022-11-18T06:35:34;6.70;99.90
30572;DHT22;17348;50.948;10.696;2022-11-18T06:38:38;6.60;99.90
30572;DHT22;17348;50.948;10.696;2022-11-18T06:41:40;6.60;99.90
30572;DHT22;17348;50.948;10.696;2022-11-18T06:44:42;6.60;99.90
30572;DHT22;17348;50.948;10.696;2022-11-18T06:47:45;6.50;99.90
30572;DHT22;17348;50.948;10.696;2022-11-18T06:50:48;6.50;99.90
30572;DHT22;17348;50.948;10.696;2022-11-18T06:53:52;6.40;99.90
30572;DHT22;17348;50.948;10.696;2022-11-18T06:56:54;6.40;99.90
30572;DHT22;17348;50.948;10.696;2022-11-18T06:59:56;6.40;99.90
30572;DHT22;17348;50.948;10.696;2022-11-18T07:03:01;6.40;99.90
30572;DHT22;17348;50.948;10.696;2022-11-18T07:06:03;6.40;99.90
30572;DHT22;17348;50.948;10.696;2022-11-18T07:09:07;6.30;99.90
30572;DHT22;17348;50.948;10.696;2022-11-18T07:12:09;6.30;99.90
30572;DHT22;17348;50.948;10.696;2022-11-18T07:15:12;6.20;99.90
30572;DHT22;17348;50.948;10.696;2022-11-18T07:18:14;6.20;99.90
30572;DHT22;17348;50.948;10.696;2022-11-18T07:21:18;6.10;99.90
30572;DHT22;17348;50.948;10.696;2022-11-18T07:24:22;6.10;99.90
30572;DHT22;17348;50.948;10.696;2022-11-18T07:27:24;6.10;99.90
30572;DHT22;17348;50.948;10.696;2022-11-18T07:30:27;6.10;99.90
30572;DHT22;17348;50.948;10.696;2022-11-18T07:33:29;6.10;99.90
30572;DHT22;17348;50.948;10.696;2022-11-18T07:36:32;6.10;99.90
30572;DHT22;17348;50.948;10.696;2022-11-18T07:39:36;6.10;99.90
30572;DHT22;17348;50.948;10.696;2022-11-18T07:42:38;6.10;99.90
30572;DHT22;17348;50.948;10.696;2022-11-18T07:45:43;6.00;99.90
30572;DHT22;17348;50.948;10.696;2022-11-18T07:48:46;6.00;99.90
30572;DHT22;17348;50.948;10.696;2022-11-18T07:51:49;6.00;99.90
30572;DHT22;17348;50.948;10.696;2022-11-18T07:54:53;6.00;99.90
30572;DHT22;17348;50.948;10.696;2022-11-18T07:57:55;6.00;99.90
30572;DHT22;17348;50.948;10.696;2022-11-18T08:00:58;6.00;99.90
30572;DHT22;17348;50.948;10.696;2022-11-18T08:04:04;6.00;99.90
30572;DHT22;17348;50.948;10.696;2022-11-18T08:07:08;6.00;99.90
30572;DHT22;17348;50.948;10.696;2022-11-18T08:10:12;6.00;99.90
30572;DHT22;17348;50.948;10.696;2022-11-18T08:13:14;6.00;99.90
30572;DHT22;17348;50.948;10.696;2022-11-18T08:16:19;6.00;99.90
30572;DHT22;17348;50.948;10.696;2022-11-18T08:19:21;6.10;99.90
30572;DHT22;17348;50.948;10.696;2022-11-18T08:22:24;6.10;99.90
30572;DHT22;17348;50.948;10.696;2022-11-18T08:25:28;6.10;99.90
30572;DHT22;17348;50.948;10.696;2022-11-18T08:28:30;6.00;99.90
30572;DHT22;17348;50.948;10.696;2022-11-18T08:31:32;6.10;99.90
30572;DHT22;17348;50.948;10.696;2022-11-18T08:34:35;6.10;99.90
30572;DHT22;17348;50.948;10.696;2022-11-18T08:37:37;6.10;99.90
30572;DHT22;17348;50.948;10.696;2022-11-18T08:40:43;6.10;99.90
30572;DHT22;17348;50.948;10.696;2022-11-18T08:43:46;6.10;99.90
30572;DHT22;17348;50.948;10.696;2022-11-18T08:46:48;6.00;99.90
30572;DHT22;17348;50.948;10.696;2022-11-18T08:49:50;6.10;99.90
30572;DHT22;17348;50.948;10.696;2022-11-18T08:52:53;6.20;99.90
30572;DHT22;17348;50.948;10.696;2022-11-18T08:55:57;6.20;99.90
30572;DHT22;17348;50.948;10.696;2022-11-18T08:59:00;6.20;99.90
30572;DHT22;17348;50.948;10.696;2022-11-18T09:02:02;6.20;99.90
30572;DHT22;17348;50.948;10.696;2022-11-18T09:05:05;6.20;99.90
30572;DHT22;17348;50.948;10.696;2022-11-18T09:08:08;6.30;99.90
30572;DHT22;17348;50.948;10.696;2022-11-18T09:11:13;6.30;99.90
30572;DHT22;17348;50.948;10.696;2022-11-18T09:14:16;6.20;99.90
30572;DHT22;17348;50.948;10.696;2022-11-18T09:17:18;6.20;99.90
30572;DHT22;17348;50.948;10.696;2022-11-18T09:20:21;6.20;99.90
30572;DHT22;17348;50.948;10.696;2022-11-18T09:23:23;6.30;99.90
30572;DHT22;17348;50.948;10.696;2022-11-18T09:26:27;6.20;99.90
30572;DHT22;17348;50.948;10.696;2022-11-18T09:29:29;6.20;99.90
30572;DHT22;17348;50.948;10.696;2022-11-18T09:32:32;6.00;99.90
30572;DHT22;17348;50.948;10.696;2022-11-18T09:35:35;6.00;99.90
30572;DHT22;17348;50.948;10.696;2022-11-18T09:38:40;5.90;99.90
30572;DHT22;17348;50.948;10.696;2022-11-18T09:41:47;5.90;99.90
30572;DHT22;17348;50.948;10.696;2022-11-18T09:45:06;5.90;99.90
30572;DHT22;17348;50.948;10.696;2022-11-18T09:48:15;5.90;99.90
30572;DHT22;17348;50.948;10.696;2022-11-18T09:51:19;5.80;99.90
30572;DHT22;17348;50.948;10.696;2022-11-18T09:54:22;5.70;99.90
30572;DHT22;17348;50.948;10.696;2022-11-18T09:57:34;5.60;99.90
30572;DHT22;17348;50.948;10.696;2022-11-18T10:00:41;5.50;99.90
30572;DHT22;17348;50.948;10.696;2022-11-18T10:03:44;5.50;99.90
30572;DHT22;17348;50.948;10.696;2022-11-18T10:06:47;5.50;99.90
30572;DHT22;17348;50.948;10.696;2022-11-18T10:09:52;5.50;99.90
30572;DHT22;17348;50.948;10.696;2022-11-18T10:13:01;5.50;99.90
30572;DHT22;17348;50.948;10.696;2022-11-18T10:16:18;5.50;99.90
30572;DHT22;17348;50.948;10.696;2022-11-18T10:19:28;5.50;99.90
30572;DHT22;17348;50.948;10.696;2022-11-18T10:22:41;5.40;99.90
30572;DHT22;17348;50.948;10.696;2022-11-18T10:25:45;5.30;99.90
30572;DHT22;17348;50.948;10.696;2022-11-18T10:28:49;5.30;99.90
30572;DHT22;17348;50.948;10.696;2022-11-18T10:32:03;5.20;99.90
30572;DHT22;17348;50.948;10.696;2022-11-18T10:35:23;5.20;99.90
30572;DHT22;17348;50.948;10.696;2022-11-18T10:38:25;5.30;99.90
30572;DHT22;17348;50.948;10.696;2022-11-18T10:41:28;5.20;99.90
30572;DHT22;17348;50.948;10.696;2022-11-18T10:44:37;5.20;99.90
30572;DHT22;17348;50.948;10.696;2022-11-18T10:47:40;5.10;99.90
30572;DHT22;17348;50.948;10.696;2022-11-18T10:50:43;5.10;99.90
30572;DHT22;17348;50.948;10.696;2022-11-18T10:53:46;5.00;99.90
30572;DHT22;17348;50.948;10.696;2022-11-18T10:56:52;5.00;99.90
30572;DHT22;17348;50.948;10.696;2022-11-18T10:59:57;5.00;99.90
30572;DHT22;17348;50.948;10.696;2022-11-18T11:02:59;5.10;99.90
30572;DHT22;17348;50.948;10.696;2022-11-18T11:06:21;5.10;99.90
30572;DHT22;17348;50.948;10.696;2022-11-18T11:09:29;5.00;99.90
30572;DHT22;17348;50.948;10.696;2022-11-18T11:12:34;5.10;99.90
30572;DHT22;17348;50.948;10.696;2022-11-18T11:15:40;5.10;99.90
30572;DHT22;17348;50.948;10.696;2022-11-18T11:18:53;5.00;99.90
30572;DHT22;17348;50.948;10.696;2022-11-18T11:21:57;5.00;99.90
30572;DHT22;17348;50.948;10.696;2022-11-18T11:25:00;5.00;99.90
30572;DHT22;17348;50.948;10.696;2022-11-18T11:28:07;5.00;99.90
30572;DHT22;17348;50.948;10.696;2022-11-18T11:31:16;4.90;99.90
30572;DHT22;17348;50.948;10.696;2022-11-18T11:34:26;4.90;99.90
30572;DHT22;17348;50.948;10.696;2022-11-18T11:37:38;4.90;99.90
30572;DHT22;17348;50.948;10.696;2022-11-18T11:40:53;4.80;99.90
30572;DHT22;17348;50.948;10.696;2022-11-18T11:44:15;4.60;99.90
30572;DHT22;17348;50.948;10.696;2022-11-18T11:47:23;4.50;99.90
30572;DHT22;17348;50.948;10.696;2022-11-18T11:50:51;4.50;99.90
30572;DHT22;17348;50.948;10.696;2022-11-18T11:54:13;4.40;99.90
30572;DHT22;17348;50.948;10.696;2022-11-18T11:57:22;4.40;99.90
30572;DHT22;17348;50.948;10.696;2022-11-18T12:00:29;4.30;99.90
30572;DHT22;17348;50.948;10.696;2022-11-18T12:03:44;4.30;99.90
30572;DHT22;17348;50.948;10.696;2022-11-18T12:06:51;4.30;99.90
30572;DHT22;17348;50.948;10.696;2022-11-18T12:10:18;4.20;99.90
30572;DHT22;17348;50.948;10.696;2022-11-18T12:13:35;4.10;99.90
30572;DHT22;17348;50.948;10.696;2022-11-18T12:16:44;4.10;99.90
30572;DHT22;17348;50.948;10.696;2022-11-18T12:19:48;4.20;99.90
30572;DHT22;17348;50.948;10.696;2022-11-18T12:23:10;4.00;99.90
30572;DHT22;17348;50.948;10.696;2022-11-18T12:26:32;3.90;99.90
30572;DHT22;17348;50.948;10.696;2022-11-18T12:29:42;3.80;99.90
30572;DHT22;17348;50.948;10.696;2022-11-18T12:32:45;3.80;99.90
30572;DHT22;17348;50.948;10.696;2022-11-18T12:35:49;3.80;99.90
30572;DHT22;17348;50.948;10.696;2022-11-18T12:38:52;3.80;99.90
30572;DHT22;17348;50.948;10.696;2022-11-18T12:41:56;3.70;99.90
30572;DHT22;17348;50.948;10.696;2022-11-18T12:48:51;3.70;99.90
30572;DHT22;17348;50.948;10.696;2022-11-18T12:51:55;3.60;99.90
30572;DHT22;17348;50.948;10.696;2022-11-18T12:55:00;3.60;99.90
30572;DHT22;17348;50.948;10.696;2022-11-18T12:58:16;3.50;99.90
30572;DHT22;17348;50.948;10.696;2022-11-18T13:01:22;3.50;99.90
30572;DHT22;17348;50.948;10.696;2022-11-18T13:04:25;3.40;99.90
30572;DHT22;17348;50.948;10.696;2022-11-18T13:07:30;3.40;99.90
30572;DHT22;17348;50.948;10.696;2022-11-18T13:10:52;3.40;99.90
30572;DHT22;17348;50.948;10.696;2022-11-18T13:14:19;3.30;99.90
30572;DHT22;17348;50.948;10.696;2022-11-18T13:17:40;3.30;99.90
30572;DHT22;17348;50.948;10.696;2022-11-18T13:20:56;3.20;99.90
30572;DHT22;17348;50.948;10.696;2022-11-18T13:24:00;3.20;99.90
30572;DHT22;17348;50.948;10.696;2022-11-18T13:27:02;3.20;99.90
30572;DHT22;17348;50.948;10.696;2022-11-18T13:30:08;3.20;99.90
30572;DHT22;17348;50.948;10.696;2022-11-18T13:33:11;3.10;99.90
30572;DHT22;17348;50.948;10.696;2022-11-18T13:36:17;3.20;99.90
30572;DHT22;17348;50.948;10.696;2022-11-18T13:39:23;3.20;99.90
30572;DHT22;17348;50.948;10.696;2022-11-18T13:42:27;3.10;99.90
30572;DHT22;17348;50.948;10.696;2022-11-18T13:45:31;3.10;99.90
30572;DHT22;17348;50.948;10.696;2022-11-18T13:48:36;3.10;99.90
30572;DHT22;17348;50.948;10.696;2022-11-18T13:51:40;3.00;99.90
30572;DHT22;17348;50.948;10.696;2022-11-18T13:54:44;3.10;99.90
30572;DHT22;17348;50.948;10.696;2022-11-18T13:57:49;3.00;99.90
30572;DHT22;17348;50.948;10.696;2022-11-18T14:00:54;2.90;99.90
30572;DHT22;17348;50.948;10.696;2022-11-18T14:03:59;2.90;99.90
30572;DHT22;17348;50.948;10.696;2022-11-18T14:07:29;2.80;99.90
30572;DHT22;17348;50.948;10.696;2022-11-18T14:10:40;2.80;99.90
30572;DHT22;17348;50.948;10.696;2022-11-18T14:13:48;2.90;99.90
30572;DHT22;17348;50.948;10.696;2022-11-18T14:16:50;2.80;99.90
30572;DHT22;17348;50.948;10.696;2022-11-18T14:19:54;2.80;99.90
30572;DHT22;17348;50.948;10.696;2022-11-18T14:22:59;2.80;99.90
30572;DHT22;17348;50.948;10.696;2022-11-18T14:26:05;2.70;99.90
30572;DHT22;17348;50.948;10.696;2022-11-18T14:29:16;2.70;99.90
30572;DHT22;17348;50.948;10.696;2022-11-18T14:32:22;2.60;99.90
30572;DHT22;17348;50.948;10.696;2022-11-18T14:35:25;2.50;99.90
30572;DHT22;17348;50.948;10.696;2022-11-18T14:38:38;2.50;99.90
30572;DHT22;17348;50.948;10.696;2022-11-18T14:41:43;2.50;99.90
30572;DHT22;17348;50.948;10.696;2022-11-18T14:44:49;2.50;99.90
30572;DHT22;17348;50.948;10.696;2022-11-18T14:47:51;2.40;99.90
30572;DHT22;17348;50.948;10.696;2022-11-18T14:50:54;2.40;99.90
30572;DHT22;17348;50.948;10.696;2022-11-18T14:53:59;2.40;99.90
30572;DHT22;17348;50.948;10.696;2022-11-18T14:57:04;2.30;99.90
30572;DHT22;17348;50.948;10.696;2022-11-18T15:00:14;2.30;99.90
30572;DHT22;17348;50.948;10.696;2022-11-18T15:03:16;2.30;99.90
30572;DHT22;17348;50.948;10.696;2022-11-18T15:06:20;2.30;99.90
30572;DHT22;17348;50.948;10.696;2022-11-18T15:09:23;2.40;99.90
30572;DHT22;17348;50.948;10.696;2022-11-18T15:12:26;2.30;99.90
30572;DHT22;17348;50.948;10.696;2022-11-18T15:15:29;2.20;99.90
30572;DHT22;17348;50.948;10.696;2022-11-18T15:18:31;2.20;99.90
30572;DHT22;17348;50.948;10.696;2022-11-18T15:21:33;2.10;99.90
30572;DHT22;17348;50.948;10.696;2022-11-18T15:24:36;2.00;99.90
30572;DHT22;17348;50.948;10.696;2022-11-18T15:27:40;2.00;99.90
30572;DHT22;17348;50.948;10.696;2022-11-18T15:30:42;2.00;99.90
30572;DHT22;17348;50.948;10.696;2022-11-18T15:33:45;2.00;99.90
30572;DHT22;17348;50.948;10.696;2022-11-18T15:36:48;2.00;99.90
30572;DHT22;17348;50.948;10.696;2022-11-18T15:39:51;2.00;99.90
30572;DHT22;17348;50.948;10.696;2022-11-18T15:42:55;2.00;99.90
30572;DHT22;17348;50.948;10.696;2022-11-18T15:45:57;1.90;99.90
30572;DHT22;17348;50.948;10.696;2022-11-18T15:48:59;1.80;99.90
30572;DHT22;17348;50.948;10.696;2022-11-18T15:52:03;1.80;99.90
30572;DHT22;17348;50.948;10.696;2022-11-18T15:55:06;1.80;99.90
30572;DHT22;17348;50.948;10.696;2022-11-18T15:58:10;1.80;99.90
30572;DHT22;17348;50.948;10.696;2022-11-18T16:01:12;1.70;99.90
30572;DHT22;17348;50.948;10.696;2022-11-18T16:04:16;1.70;99.90
30572;DHT22;17348;50.948;10.696;2022-11-18T16:07:19;1.70;99.90
30572;DHT22;17348;50.948;10.696;2022-11-18T16:10:22;1.70;99.90
30572;DHT22;17348;50.948;10.696;2022-11-18T16:13:43;1.60;99.90
30572;DHT22;17348;50.948;10.696;2022-11-18T16:16:46;1.60;99.90
30572;DHT22;17348;50.948;10.696;2022-11-18T16:19:49;1.60;99.90
30572;DHT22;17348;50.948;10.696;2022-11-18T16:22:51;1.60;99.90
30572;DHT22;17348;50.948;10.696;2022-11-18T16:25:54;1.50;99.90
30572;DHT22;17348;50.948;10.696;2022-11-18T16:28:58;1.60;99.90
30572;DHT22;17348;50.948;10.696;2022-11-18T16:32:00;1.60;99.90
30572;DHT22;17348;50.948;10.696;2022-11-18T16:35:03;1.50;99.90
30572;DHT22;17348;50.948;10.696;2022-11-18T16:38:06;1.60;99.90
30572;DHT22;17348;50.948;10.696;2022-11-18T16:41:09;1.60;99.90
30572;DHT22;17348;50.948;10.696;2022-11-18T16:44:26;1.50;99.90
30572;DHT22;17348;50.948;10.696;2022-11-18T16:47:29;1.50;99.90
30572;DHT22;17348;50.948;10.696;2022-11-18T16:50:31;1.50;99.90
30572;DHT22;17348;50.948;10.696;2022-11-18T16:53:33;1.50;99.90
30572;DHT22;17348;50.948;10.696;2022-11-18T16:56:39;1.50;99.90
30572;DHT22;17348;50.948;10.696;2022-11-18T16:59:43;1.60;99.90
30572;DHT22;17348;50.948;10.696;2022-11-18T17:02:45;1.50;99.90
30572;DHT22;17348;50.948;10.696;2022-11-18T17:05:48;1.50;99.90
30572;DHT22;17348;50.948;10.696;2022-11-18T17:08:51;1.50;99.90
30572;DHT22;17348;50.948;10.696;2022-11-18T17:11:54;1.40;99.90
30572;DHT22;17348;50.948;10.696;2022-11-18T17:14:58;1.40;99.90
30572;DHT22;17348;50.948;10.696;2022-11-18T17:18:00;1.30;99.90
30572;DHT22;17348;50.948;10.696;2022-11-18T17:21:04;1.20;99.90
30572;DHT22;17348;50.948;10.696;2022-11-18T17:24:07;1.20;99.90
30572;DHT22;17348;50.948;10.696;2022-11-18T17:27:10;1.10;99.90
30572;DHT22;17348;50.948;10.696;2022-11-18T17:30:15;1.10;99.90
30572;DHT22;17348;50.948;10.696;2022-11-18T17:33:17;1.10;99.90
30572;DHT22;17348;50.948;10.696;2022-11-18T17:36:20;1.00;99.90
30572;DHT22;17348;50.948;10.696;2022-11-18T17:39:23;1.00;99.90
30572;DHT22;17348;50.948;10.696;2022-11-18T17:42:25;1.00;99.90
30572;DHT22;17348;50.948;10.696;2022-11-18T17:45:29;1.00;99.90
30572;DHT22;17348;50.948;10.696;2022-11-18T17:48:31;0.90;99.90
30572;DHT22;17348;50.948;10.696;2022-11-18T17:51:34;0.90;99.90
30572;DHT22;17348;50.948;10.696;2022-11-18T17:54:36;0.80;99.90
30572;DHT22;17348;50.948;10.696;2022-11-18T17:57:38;0.70;99.90
30572;DHT22;17348;50.948;10.696;2022-11-18T18:00:42;0.50;99.90
30572;DHT22;17348;50.948;10.696;2022-11-18T18:03:45;0.50;99.90
30572;DHT22;17348;50.948;10.696;2022-11-18T18:06:48;0.50;99.90
30572;DHT22;17348;50.948;10.696;2022-11-18T18:09:51;0.40;99.90
30572;DHT22;17348;50.948;10.696;2022-11-18T18:12:53;0.40;99.90
30572;DHT22;17348;50.948;10.696;2022-11-18T18:16:15;0.30;99.90
30572;DHT22;17348;50.948;10.696;2022-11-18T18:19:19;0.30;99.90
30572;DHT22;17348;50.948;10.696;2022-11-18T18:22:21;0.40;99.90
30572;DHT22;17348;50.948;10.696;2022-11-18T18:25:24;0.30;99.90
30572;DHT22;17348;50.948;10.696;2022-11-18T18:28:26;0.30;99.90
30572;DHT22;17348;50.948;10.696;2022-11-18T18:31:32;0.30;99.90
30572;DHT22;17348;50.948;10.696;2022-11-18T18:34:34;0.30;99.90
30572;DHT22;17348;50.948;10.696;2022-11-18T18:37:37;0.30;99.90
30572;DHT22;17348;50.948;10.696;2022-11-18T18:40:39;0.30;99.90
30572;DHT22;17348;50.948;10.696;2022-11-18T18:43:42;0.30;99.90
30572;DHT22;17348;50.948;10.696;2022-11-18T18:46:45;0.30;99.90
30572;DHT22;17348;50.948;10.696;2022-11-18T18:49:48;0.30;99.90
30572;DHT22;17348;50.948;10.696;2022-11-18T18:52:50;0.30;99.90
30572;DHT22;17348;50.948;10.696;2022-11-18T18:55:54;0.30;99.90
30572;DHT22;17348;50.948;10.696;2022-11-18T18:58:57;0.30;99.90
30572;DHT22;17348;50.948;10.696;2022-11-18T19:02:01;0.30;99.90
30572;DHT22;17348;50.948;10.696;2022-11-18T19:05:04;0.30;99.90
30572;DHT22;17348;50.948;10.696;2022-11-18T19:08:12;0.30;99.90
30572;DHT22;17348;50.948;10.696;2022-11-18T19:11:17;0.30;99.90
30572;DHT22;17348;50.948;10.696;2022-11-18T19:14:36;0.30;99.90
30572;DHT22;17348;50.948;10.696;2022-11-18T19:17:41;0.30;99.90
30572;DHT22;17348;50.948;10.696;2022-11-18T19:20:44;0.30;99.90
30572;DHT22;17348;50.948;10.696;2022-11-18T19:23:46;0.30;99.90
30572;DHT22;17348;50.948;10.696;2022-11-18T19:26:48;0.20;99.90
30572;DHT22;17348;50.948;10.696;2022-11-18T19:29:51;0.20;99.90
30572;DHT22;17348;50.948;10.696;2022-11-18T19:32:58;0.20;99.90
30572;DHT22;17348;50.948;10.696;2022-11-18T19:36:00;0.20;99.90
30572;DHT22;17348;50.948;10.696;2022-11-18T19:39:03;0.20;99.90